KDXR/DXR METAR and TAF weather

Enter ICAO airport designator
Station Type Date Time Source
KDXR METAR 2020/02/19 10:53 UTC NOAA

KDXR 191053Z AUTO 30006KT 10SM BKN110 03/M02 A3009 RMK AO2 SLP192 T00331017


Station Type Date Time Source
KDXR Decoded METAR 2020/02/19 10:53 UTC NOAA

DANBURY MUNICIPAL AIRPORT, CT, United States (KDXR) 41-22N 073-29W 139M
Feb 19, 2020 - 05:53 AM EST / 2020.02.19 1053 UTC
Wind: from the WNW (300 degrees) at 7 MPH (6 KT):0
Visibility: 10 mile(s):0
Sky conditions: mostly cloudy
Temperature: 37.9 F (3.3 C)
Dew Point: 28.9 F (-1.7 C)
Relative Humidity: 69%
Pressure (altimeter): 30.09 in. Hg (1018 hPa)
ob: KDXR 191053Z AUTO 30006KT 10SM BKN110 03/M02 A3009 RMK AO2 SLP192 T00331017
cycle: 11

Station Type Date Time Source
KDXR TAF UTC NOAA

Error!

Example: see airport list